Historyczne dane pomiarowe

Dodano dane terminowe – wersja testowa.

Dane z okresu 1951-2019

Wersja bazy: 1.34 [2019-03-16, lista zmian], aktualizacja planowana na 2019-04-15

Dane meteo z obszaru Polski uzyskane na podstawie danych udostępnionych przez Instytut Meteorologii i Gospodarki Wodnej – Państwowy Instytut Badawczy.

 

Wybierz Datę:    

       

TemperaturaWilgotnośćWiatrCiśnienieOpadyŚniegCzas trwania zjawisk
 Stacja t tx tn tng RH VA  wxwx mslp ppp RRR   cm mm wxwxwxwxwxwxwx
1961-08-14 14.4 18.9 8.7 7.6-- 3.3 0.7---- 0.0------------
1961-08-13 14.4 17.7 12.4 15.1-- 7.0 1.3---- 0.6------------
1961-08-12 17.6 20.9 15.3 15.6-- 7.3 2.0---- 3.5------------
1961-08-11 20.5 26.9 16.0 16.1-- 3.0 1.7---- 11.3------------
1961-08-10 20.2 26.1 14.7 14.1-- 5.0 2.0---- 15.1------------
1961-08-09 20.9 26.4 14.1 12.0-- 4.3 0.7---- 0.0------------
1961-08-08 17.5 22.6 13.5 12.6-- 4.3 1.3---- 0.0------------
1961-08-07 22.2 29.5 17.6 14.6-- 5.3 1.3---- 2.8------------
1961-08-06 22.2 29.0 11.7 9.8-- 0.7 3.7---- 0.0------------
1961-08-05 15.9 22.3 13.1 12.6-- 4.0 2.0---- 0.0------------
1961-08-04 16.0 20.4 11.9 9.7-- 5.3 2.0---- 0.0------------
1961-08-03 17.6 23.1 14.5 10.7-- 6.7 1.7---- 0.0------------
1961-08-02 17.8 24.1 9.9 7.5-- 2.3 1.3---- 0.0------------
1961-08-01 14.3 15.0 11.6 10.6-- 8.0 3.7---- 1.2------------
1961-07-31 14.8 18.9 13.5 14.1-- 5.7 4.0---- 0.2------------
1961-07-30 13.8 14.8 12.6 12.8-- 8.0 2.0---- 28.3------------
1961-07-29 14.6 16.7 13.1 13.5-- 8.0 1.0---- 14.4------------
1961-07-28 17.3 21.2 15.7 15.4-- 6.7 3.0---- 25.1------------
1961-07-27 18.9 24.4 15.3 13.9-- 7.0 1.7---- 0.2------------
1961-07-26 16.3 18.4 12.0 10.9-- 7.3 2.7---- 0.0------------
1961-07-25 14.1 17.9 11.1 10.1-- 6.3 2.7---- 0.0------------
1961-07-24 15.2 19.0 11.7 10.3-- 4.7 3.0---- 0.0------------
1961-07-23 14.5 18.1 10.8 9.4-- 5.3 2.0---- 0.0------------
1961-07-22 13.3 18.0 12.0 12.2-- 5.7 2.3---- 20.5------------
1961-07-21 15.8 21.6 9.8 8.4-- 6.3 2.3---- 1.4------------
1961-07-20 16.5 22.5 8.3 6.1-- 5.0 1.3---- 0.0------------
1961-07-19 16.0 22.0 8.7 6.3-- 5.0 1.7---- 1.1------------
1961-07-18 13.5 17.3 9.9 9.1-- 5.7 3.0---- 0.0------------
1961-07-17 16.6 22.9 11.0 11.0-- 5.7 3.3---- 0.0------------
1961-07-16 17.7 22.1 9.2 7.3-- 6.0 3.0---- 0.1------------
1961-07-15 17.2 22.1 11.5 9.9-- 4.0 2.3---- 0.1------------
1961-07-14 15.5 22.3 13.2 16.3-- 6.3 3.0---- 0.0------------
1961-07-13 21.6 28.9 9.5 8.8-- 3.7 2.0---- 0.0------------
1961-07-12 15.9 20.8 10.4 9.3-- 6.0 2.3---- 0.4------------
1961-07-11 14.5 19.4 10.0 8.7-- 3.0 2.0---- 0.0------------
1961-07-10 13.0 18.7 11.5 10.7-- 7.0 3.3---- 0.0------------
1961-07-09 17.2 23.1 9.3 7.3-- 4.3 2.7---- 1.2------------
1961-07-08 14.7 19.7 10.7 9.3-- 4.3 2.3---- 0.0------------
1961-07-07 13.8 17.6 9.5 8.6-- 4.7 2.0---- 0.0------------
1961-07-06 12.8 17.5 7.3 5.7-- 4.0 3.0---- 0.0------------
1961-07-05 14.8 18.4 13.0 13.8-- 7.3 3.3---- 0.0------------
1961-07-04 20.2 25.9 15.8 13.3-- 7.0 2.0---- 17.3------------
1961-07-03 22.4 29.7 11.6 9.6-- 1.3 1.0---- 0.0------------
1961-07-02 21.1 27.9 9.7 8.2-- 1.0 1.0---- 0.0------------
1961-07-01 17.0 22.6 9.6 7.3-- 2.7 1.0---- 0.0------------
1961-06-30 17.6 23.9 9.6 8.1-- 1.3 1.3---- 0.0------------
1961-06-29 13.7 18.5 7.5 6.5-- 4.0 1.7---- 0.2------------
1961-06-28 14.2 24.7 11.3 17.7-- 5.7 0.7---- 12.2------------
1961-06-27 25.1 30.9 14.4 12.7-- 4.0 3.3---- 1.1------------
1961-06-26 22.6 28.4 15.0 13.0-- 4.7 2.0---- 0.0------------
1961-06-25 20.1 26.4 12.4 10.9-- 4.7 4.7---- 0.0------------
1961-06-24 16.2 22.0 10.9 9.7-- 5.7 3.0---- 0.0------------
1961-06-23 16.7 21.3 12.5 10.9-- 5.7 3.0---- 4.1------------
1961-06-22 14.6 19.9 9.3 8.6-- 4.0 1.7---- 1.5------------
1961-06-21 16.2 21.0 5.6 4.1-- 4.7 1.3---- 4.3------------
1961-06-20 13.8 19.1 8.5 7.1-- 2.0 3.0---- 0.0------------
1961-06-19 16.8 22.3 14.1 13.4-- 5.0 3.3---- 0.0------------
1961-06-18 18.0 22.2 12.5 11.1-- 8.0 2.3---- 0.0------------
1961-06-17 15.1 20.4 10.9 10.5-- 6.7 2.0---- 1.0------------
1961-06-16 13.2 16.4 11.3 10.6-- 7.3 2.3---- 11.3------------
331.7 ms

 

Źródłem pochodzenia danych jest Instytut Meteorologii i Gospodarki Wodnej – Państwowy Instytut Badawczy. Dane Instytutu Meteorologii i Gospodarki Wodnej – Państwowego Instytutu Badawczego zostały przetworzone.

Dane źródłowe można odnaleźć na stronie https://dane.imgw.pl